Time;durP1;ratioP1;P1;durP2;ratioP2;P2;SDS_P1;SDS_P2;PMS_P1;PMS_P2;Temp;Humidity;BMP_temperature;BMP_pressure;BME280_temperature;BME280_humidity;BME280_pressure;Samples;Min_cycle;Max_cycle;Signal;HPM_P1;HPM_P2
2020/12/11 00:00:30;;;;;;;85.45;41.35;;;;;;;0.72;74.59;99533.41;2217682;80;34073;-66
2020/12/11 00:03:34;;;;;;;93.78;44.93;;;;;;;0.70;74.42;99536.06;2216987;80;27687;-65
2020/12/11 00:06:40;;;;;;;81.55;40.60;;;;;;;0.71;74.53;99539.58;2217509;80;27846;-65
2020/12/11 00:09:46;;;;;;;87.42;45.25;;;;;;;0.67;74.36;99538.76;2217921;80;28866;-66
2020/12/11 00:12:53;;;;;;;81.67;41.08;;;;;;;0.64;74.54;99536.65;2211222;80;27835;-66
2020/12/11 00:16:00;;;;;;;81.25;40.73;;;;;;;0.70;74.62;99536.53;2186443;80;33174;-65
2020/12/11 00:19:00;;;;;;;87.70;42.90;;;;;;;0.77;74.55;99530.67;2169023;82;28928;-66
2020/12/11 00:22:02;;;;;;;96.85;46.58;;;;;;;0.80;74.66;99520.91;2169250;80;27650;-66
2020/12/11 00:25:05;;;;;;;87.80;43.55;;;;;;;0.86;74.65;99525.18;2183249;80;28824;-65
2020/12/11 00:28:08;;;;;;;89.35;43.25;;;;;;;0.89;74.54;99533.91;2205735;80;32027;-65
2020/12/11 00:31:12;;;;;;;83.78;43.02;;;;;;;0.92;74.52;99535.60;2206668;80;34018;-65
2020/12/11 00:34:15;;;;;;;87.12;45.03;;;;;;;0.94;74.47;99526.33;2183803;80;28857;-65
2020/12/11 00:37:18;;;;;;;87.33;43.17;;;;;;;0.99;74.54;99531.05;2207796;80;27844;-66
2020/12/11 00:40:20;;;;;;;89.60;42.08;;;;;;;1.01;74.50;99530.10;2205052;80;28813;-65
2020/12/11 00:43:23;;;;;;;83.65;42.88;;;;;;;1.02;74.28;99534.94;2216349;80;31123;-66
2020/12/11 00:46:46;;;;;;;81.28;38.88;;;;;;;0.99;74.27;99537.64;2217331;80;33977;-64
2020/12/11 00:49:54;;;;;;;84.32;41.68;;;;;;;1.00;74.35;99542.02;2217332;79;29219;-66
2020/12/11 00:52:58;;;;;;;84.25;41.98;;;;;;;1.03;74.39;99541.48;2207194;78;28227;-65
2020/12/11 00:56:13;;;;;;;83.87;43.65;;;;;;;1.00;74.04;99543.34;2216916;80;28936;-65
2020/12/11 00:59:30;;;;;;;83.52;42.03;;;;;;;0.96;74.29;99538.59;2207456;80;32851;-64
2020/12/11 01:02:46;;;;;;;95.87;44.13;;;;;;;0.99;74.36;99534.57;2210470;80;34096;-65
2020/12/11 01:05:51;;;;;;;84.00;41.55;;;;;;;0.97;74.16;99536.80;2207753;80;28854;-65
2020/12/11 01:08:53;;;;;;;91.82;44.00;;;;;;;0.95;74.19;99540.81;2190847;80;27742;-66
2020/12/11 01:11:55;;;;;;;85.65;41.45;;;;;;;0.95;74.22;99533.33;2224762;80;28892;-65
2020/12/11 01:14:58;;;;;;;78.45;38.95;;;;;;;0.88;73.97;99532.61;2181381;80;31205;-64
2020/12/11 01:18:01;;;;;;;88.55;41.55;;;;;;;0.81;74.01;99531.88;2191941;80;33099;-66
2020/12/11 01:21:04;;;;;;;91.75;44.45;;;;;;;0.75;74.17;99534.64;2217378;80;28893;-64
2020/12/11 01:24:06;;;;;;;82.15;41.28;;;;;;;0.73;74.18;99540.42;2185955;80;27825;-65
2020/12/11 01:27:13;;;;;;;87.12;41.40;;;;;;;0.72;74.27;99532.09;2217008;80;29017;-63
2020/12/11 01:30:16;;;;;;;81.53;40.50;;;;;;;0.73;74.28;99529.88;2145954;79;31257;-66
2020/12/11 01:33:21;;;;;;;84.20;42.95;;;;;;;0.77;74.32;99533.30;2164721;81;34042;-67
2020/12/11 01:36:26;;;;;;;86.78;43.28;;;;;;;0.78;74.31;99537.68;2171048;81;28952;-65
2020/12/11 01:39:29;;;;;;;85.75;41.53;;;;;;;0.81;74.36;99531.88;2149303;82;27655;-67
2020/12/11 01:42:36;;;;;;;85.32;42.62;;;;;;;0.79;74.20;99527.55;2148531;82;28770;-67
2020/12/11 01:45:44;;;;;;;73.75;37.30;;;;;;;0.75;74.14;99524.09;2149675;82;31145;-68
2020/12/11 01:48:51;;;;;;;77.72;39.15;;;;;;;0.71;74.18;99529.89;2149822;82;33121;-66
2020/12/11 01:52:04;;;;;;;81.20;40.28;;;;;;;0.70;74.30;99526.84;2121900;82;28883;-69
2020/12/11 01:55:06;;;;;;;79.20;39.47;;;;;;;0.71;74.30;99534.31;2149699;82;27773;-66
2020/12/11 01:58:20;;;;;;;79.03;37.80;;;;;;;0.72;74.45;99535.58;2149701;81;28834;-67
2020/12/11 02:01:24;;;;;;;76.82;40.35;;;;;;;0.75;74.46;99537.27;2149812;82;31148;-67
2020/12/11 02:04:33;;;;;;;83.60;41.57;;;;;;;0.81;74.38;99531.03;2149741;82;33115;-69
2020/12/11 02:07:42;;;;;;;87.92;42.35;;;;;;;0.82;74.18;99532.77;2148099;82;27655;-67
2020/12/11 02:10:47;;;;;;;85.95;42.33;;;;;;;0.80;74.23;99532.78;2149954;82;27640;-68
2020/12/11 02:13:49;;;;;;;83.10;40.52;;;;;;;0.85;74.41;99521.69;2150110;82;28802;-65
2020/12/11 02:17:03;;;;;;;76.85;39.15;;;;;;;0.83;74.14;99514.27;2149219;82;31158;-67
2020/12/11 02:20:12;;;;;;;74.85;39.88;;;;;;;0.84;74.24;99511.16;2148809;82;33190;-66
2020/12/11 02:23:14;;;;;;;82.40;42.03;;;;;;;0.82;74.23;99507.25;2118429;82;28856;-65
2020/12/11 02:26:17;;;;;;;95.20;44.03;;;;;;;0.81;74.13;99506.83;2149725;82;27727;-66
2020/12/11 02:29:25;;;;;;;82.12;39.55;;;;;;;0.79;74.12;99507.78;2174886;81;29090;-67
2020/12/11 02:32:27;;;;;;;81.75;41.45;;;;;;;0.78;74.12;99505.58;2173500;80;31193;-66
2020/12/11 02:35:30;;;;;;;77.12;39.00;;;;;;;0.79;74.21;99509.09;2141488;83;33581;-65
2020/12/11 02:38:33;;;;;;;84.10;39.45;;;;;;;0.79;74.12;99505.14;2136045;81;28911;-67
2020/12/11 02:41:36;;;;;;;82.10;41.30;;;;;;;0.77;74.04;99503.84;2135972;83;27745;-66
2020/12/11 02:44:38;;;;;;;83.25;41.23;;;;;;;0.74;73.97;99502.62;2135836;83;28837;-67
2020/12/11 02:47:40;;;;;;;82.55;39.95;;;;;;;0.71;74.12;99500.89;2136139;81;31146;-67
2020/12/11 02:50:44;;;;;;;77.27;37.53;;;;;;;0.69;74.07;99494.78;2100417;84;33117;-67
2020/12/11 02:53:49;;;;;;;109.12;53.05;;;;;;;0.66;74.02;99490.92;2098926;84;27710;-67
2020/12/11 02:56:54;;;;;;;87.85;41.53;;;;;;;0.65;74.06;99488.30;2124571;82;27640;-66
2020/12/11 02:59:57;;;;;;;79.05;39.75;;;;;;;0.59;74.00;99489.31;2166334;81;29716;-67
2020/12/11 03:02:59;;;;;;;77.27;38.80;;;;;;;0.60;74.24;99483.14;2138474;81;32316;-66
2020/12/11 03:06:01;;;;;;;75.30;38.02;;;;;;;0.59;74.14;99482.72;2134341;81;33202;-66
2020/12/11 03:09:04;;;;;;;82.40;38.70;;;;;;;0.58;74.07;99479.20;2130063;83;29780;-66
2020/12/11 03:12:06;;;;;;;77.20;38.53;;;;;;;0.59;74.21;99481.41;2126747;82;27587;-66
2020/12/11 03:15:08;;;;;;;74.90;37.30;;;;;;;0.60;74.28;99479.19;2080132;85;29996;-66
2020/12/11 03:18:11;;;;;;;78.15;38.92;;;;;;;0.57;74.24;99476.18;2122912;82;31212;-66
2020/12/11 03:21:14;;;;;;;71.22;36.88;;;;;;;0.54;74.19;99468.77;2129525;83;33049;-66
2020/12/11 03:24:16;;;;;;;80.32;37.42;;;;;;;0.53;74.32;99469.67;2132553;82;28861;-66
2020/12/11 03:27:18;;;;;;;80.35;38.02;;;;;;;0.55;74.36;99465.23;2175057;81;27883;-66
2020/12/11 03:30:36;;;;;;;79.92;39.35;;;;;;;0.54;74.31;99460.43;2177421;80;30089;-66
2020/12/11 03:34:01;;;;;;;90.53;42.20;;;;;;;0.53;74.18;99460.44;2177624;81;32053;-67
2020/12/11 03:37:15;;;;;;;75.12;36.08;;;;;;;0.52;74.43;99467.93;2158199;81;33096;-67
2020/12/11 03:40:21;;;;;;;73.42;36.33;;;;;;;0.56;74.45;99468.29;2121677;81;28863;-67
2020/12/11 03:43:33;;;;;;;73.42;37.33;;;;;;;0.59;74.42;99466.44;2119732;84;27678;-67
2020/12/11 03:46:44;;;;;;;89.97;40.30;;;;;;;0.63;74.31;99460.67;2139104;81;28846;-67
2020/12/11 03:49:58;;;;;;;94.20;43.20;;;;;;;0.63;74.33;99456.72;2155717;81;32132;-67
2020/12/11 03:53:04;;;;;;;89.75;40.78;;;;;;;0.63;74.18;99457.16;2156322;82;33012;-67
2020/12/11 03:56:08;;;;;;;76.87;37.00;;;;;;;0.59;74.29;99454.58;2159266;81;28937;-67
2020/12/11 03:59:11;;;;;;;90.75;40.23;;;;;;;0.59;74.25;99450.63;2177690;81;27696;-67
2020/12/11 04:02:13;;;;;;;87.42;39.20;;;;;;;0.56;74.16;99460.38;2129329;81;29782;-67
2020/12/11 04:05:15;;;;;;;78.85;37.08;;;;;;;0.50;74.14;99457.44;2100296;84;32049;-67
2020/12/11 04:08:17;;;;;;;75.03;36.28;;;;;;;0.41;74.17;99461.61;2146837;81;34440;-67
2020/12/11 04:11:19;;;;;;;79.07;38.17;;;;;;;0.38;74.33;99462.98;2130355;83;28876;-66
2020/12/11 04:14:22;;;;;;;79.58;38.30;;;;;;;0.37;74.45;99458.14;2158700;82;27672;-67
2020/12/11 04:17:24;;;;;;;76.53;38.50;;;;;;;0.37;74.50;99455.98;2137836;82;28832;-67
2020/12/11 04:20:27;;;;;;;83.65;38.83;;;;;;;0.37;74.53;99462.09;2158217;82;31219;-67
2020/12/11 04:23:29;;;;;;;79.40;37.40;;;;;;;0.36;74.54;99463.00;2157878;82;34017;-66
2020/12/11 04:26:31;;;;;;;86.90;38.67;;;;;;;0.43;74.64;99467.68;2158530;82;28335;-67
2020/12/11 04:29:33;;;;;;;78.72;39.10;;;;;;;0.45;74.61;99458.86;2132777;81;27650;-67
2020/12/11 04:32:38;;;;;;;77.55;35.73;;;;;;;0.50;74.55;99453.95;2116148;84;28834;-66
2020/12/11 04:35:40;;;;;;;84.70;38.13;;;;;;;0.46;74.38;99454.45;2129819;81;31686;-66
2020/12/11 04:38:44;;;;;;;87.00;41.83;;;;;;;0.47;74.48;99447.42;2151700;82;34050;-67
2020/12/11 04:41:47;;;;;;;86.53;40.00;;;;;;;0.48;74.61;99447.84;2154485;81;29203;-66
2020/12/11 04:44:49;;;;;;;84.20;39.10;;;;;;;0.50;74.47;99448.22;2160848;81;28105;-66
2020/12/11 04:47:51;;;;;;;86.17;38.45;;;;;;;0.50;74.54;99442.09;2152263;82;29787;-66
2020/12/11 04:50:54;;;;;;;84.85;39.88;;;;;;;0.49;74.42;99443.84;2152450;82;31146;-66
2020/12/11 04:53:59;;;;;;;90.20;40.05;;;;;;;0.47;74.46;99445.64;2178708;81;33106;-66
2020/12/11 04:57:04;;;;;;;83.15;39.42;;;;;;;0.47;74.46;99440.38;2191757;81;30106;-67
2020/12/11 05:00:06;;;;;;;79.03;38.25;;;;;;;0.45;74.53;99442.17;2117409;81;27724;-66
2020/12/11 05:03:13;;;;;;;79.70;37.15;;;;;;;0.41;74.48;99446.65;2155343;81;30102;-66
2020/12/11 05:06:18;;;;;;;83.92;39.45;;;;;;;0.39;74.60;99446.28;2197446;81;31167;-67
2020/12/11 05:09:20;;;;;;;83.00;39.35;;;;;;;0.39;74.63;99442.33;2160819;81;33123;-65
2020/12/11 05:12:24;;;;;;;82.22;39.27;;;;;;;0.34;74.63;99448.98;2159087;81;29161;-65
2020/12/11 05:15:28;;;;;;;81.63;37.33;;;;;;;0.33;74.65;99447.28;2197586;81;27769;-66
2020/12/11 05:18:31;;;;;;;80.45;39.58;;;;;;;0.33;74.75;99443.33;2197343;81;29779;-66
2020/12/11 05:21:33;;;;;;;81.90;37.13;;;;;;;0.34;74.82;99445.50;2196857;81;31064;-66
2020/12/11 05:24:45;;;;;;;84.28;40.17;;;;;;;0.31;74.78;99442.49;2153980;81;33227;-66
2020/12/11 05:27:48;;;;;;;94.67;40.90;;;;;;;0.29;74.84;99449.09;2127667;82;30048;-65
2020/12/11 05:30:50;;;;;;;83.27;41.80;;;;;;;0.29;74.98;99445.61;2115936;83;27723;-66
2020/12/11 05:34:05;;;;;;;84.92;41.40;;;;;;;0.32;74.99;99449.50;2148131;81;29726;-66
2020/12/11 05:37:07;;;;;;;75.87;37.98;;;;;;;0.32;74.96;99451.25;2152648;82;30941;-66
2020/12/11 05:40:22;;;;;;;103.15;45.73;;;;;;;0.33;74.94;99443.33;2144553;82;34506;-66
2020/12/11 05:43:24;;;;;;;104.43;44.23;;;;;;;0.30;75.02;99449.51;2163620;81;34860;-66
2020/12/11 05:46:31;;;;;;;89.37;41.28;;;;;;;0.30;74.98;99444.24;2151199;81;27771;-66
2020/12/11 05:49:33;;;;;;;88.35;41.90;;;;;;;0.27;75.13;99442.98;2151214;81;28811;-66
2020/12/11 05:52:35;;;;;;;86.78;41.55;;;;;;;0.26;75.05;99443.88;2188784;79;31134;-66
2020/12/11 05:55:37;;;;;;;93.33;43.50;;;;;;;0.24;75.19;99452.30;2190949;79;33960;-66
2020/12/11 05:58:42;;;;;;;99.90;41.50;;;;;;;0.27;75.19;99456.16;2190896;81;30022;-65
2020/12/11 06:01:48;;;;;;;86.28;41.48;;;;;;;0.26;75.26;99455.73;2187666;79;27617;-67
2020/12/11 06:04:52;;;;;;;90.28;38.90;;;;;;;0.27;75.24;99450.89;2190707;79;28858;-66
2020/12/11 06:07:54;;;;;;;89.03;41.10;;;;;;;0.28;75.36;99449.98;2187053;79;31132;-66
2020/12/11 06:10:58;;;;;;;95.75;43.45;;;;;;;0.23;75.32;99444.41;2190766;79;33113;-66
2020/12/11 06:14:02;;;;;;;98.60;41.83;;;;;;;0.24;75.42;99450.09;2189386;79;30029;-67
2020/12/11 06:17:05;;;;;;;86.63;41.42;;;;;;;0.26;75.48;99442.56;2184470;79;27715;-67
2020/12/11 06:20:10;;;;;;;89.42;42.75;;;;;;;0.25;75.42;99447.88;2161434;81;28862;-66
2020/12/11 06:23:29;;;;;;;90.38;43.70;;;;;;;0.25;75.46;99444.78;2178536;79;31179;-68
2020/12/11 06:26:32;;;;;;;99.80;44.93;;;;;;;0.30;75.57;99449.98;2183332;79;33109;-68
2020/12/11 06:29:40;;;;;;;97.92;43.08;;;;;;;0.34;75.61;99446.35;2181806;81;29151;-66
2020/12/11 06:32:44;;;;;;;89.75;42.45;;;;;;;0.36;75.51;99437.97;2171699;80;28208;-66
2020/12/11 06:35:58;;;;;;;100.47;47.60;;;;;;;0.41;75.65;99441.38;2172774;80;28971;-67
2020/12/11 06:39:01;;;;;;;107.90;47.65;;;;;;;0.45;75.62;99444.80;2163367;81;30703;-67
2020/12/11 06:42:39;;;;;;;111.50;49.35;;;;;;;0.44;75.50;99440.44;2173127;81;33114;-67
2020/12/11 06:45:43;;;;;;;107.32;48.42;;;;;;;0.45;75.55;99440.42;2137538;81;29888;-67
2020/12/11 06:49:17;;;;;;;115.03;52.85;;;;;;;0.47;75.57;99432.94;2173677;80;27943;-67
2020/12/11 06:52:19;;;;;;;110.45;48.68;;;;;;;0.49;75.55;99428.50;2163340;81;28858;-67
2020/12/11 06:55:22;;;;;;;115.35;50.70;;;;;;;0.51;75.57;99424.92;2172517;80;31133;-68
2020/12/11 06:58:24;;;;;;;122.53;54.75;;;;;;;0.52;75.53;99420.50;2170121;81;33562;-67
2020/12/11 07:01:29;;;;;;;121.82;53.95;;;;;;;0.48;75.43;99425.45;2170139;80;29147;-67
2020/12/11 07:04:46;;;;;;;114.37;51.98;;;;;;;0.44;75.50;99421.98;2173227;80;27776;-67
2020/12/11 07:07:50;;;;;;;127.45;56.15;;;;;;;0.40;75.58;99426.47;2174902;81;28815;-68
2020/12/11 07:10:53;;;;;;;124.38;56.80;;;;;;;0.38;75.63;99426.09;2173982;81;31127;-67
2020/12/11 07:13:55;;;;;;;125.07;54.90;;;;;;;0.40;75.72;99425.16;2174990;81;33249;-67
2020/12/11 07:16:58;;;;;;;120.92;55.85;;;;;;;0.41;75.86;99421.62;2174752;81;29174;-65
2020/12/11 07:20:01;;;;;;;131.20;61.53;;;;;;;0.44;75.81;99414.09;2174802;81;28135;-66
2020/12/11 07:23:04;;;;;;;136.47;62.08;;;;;;;0.45;75.79;99406.59;2174990;81;28827;-66
2020/12/11 07:26:11;;;;;;;135.97;63.05;;;;;;;0.46;75.88;99403.06;2174811;81;31142;-66
2020/12/11 07:29:16;;;;;;;144.65;69.12;;;;;;;0.47;75.93;99405.27;2171158;81;33959;-66
2020/12/11 07:32:20;;;;;;;142.18;60.15;;;;;;;0.43;75.92;99409.28;2170528;82;29193;-67
2020/12/11 07:35:23;;;;;;;120.70;55.75;;;;;;;0.46;76.07;99414.92;2170269;81;28272;-66
2020/12/11 07:38:27;;;;;;;130.85;57.75;;;;;;;0.44;76.09;99412.34;2153269;81;28883;-66
2020/12/11 07:41:31;;;;;;;121.92;55.25;;;;;;;0.49;76.27;99414.01;2136777;83;32049;-66
2020/12/11 07:44:37;;;;;;;117.15;53.92;;;;;;;0.54;76.22;99413.42;2137660;83;33135;-66
2020/12/11 07:47:40;;;;;;;124.35;55.28;;;;;;;0.63;76.30;99412.35;2146550;81;29154;-66
2020/12/11 07:50:46;;;;;;;124.55;56.77;;;;;;;0.73;76.38;99404.20;2175097;81;27781;-66
2020/12/11 07:53:53;;;;;;;131.07;56.85;;;;;;;0.82;76.26;99397.83;2174784;81;28871;-66
2020/12/11 07:56:55;;;;;;;132.75;60.23;;;;;;;0.86;76.15;99395.55;2174986;81;32077;-66
2020/12/11 08:00:07;;;;;;;136.18;60.03;;;;;;;0.91;76.13;99395.42;2120993;81;33128;-66
2020/12/11 08:03:11;;;;;;;133.95;60.38;;;;;;;1.00;76.35;99393.86;2174939;81;29162;-66
2020/12/11 08:06:13;;;;;;;134.65;60.00;;;;;;;1.06;76.13;99396.36;2174093;81;27247;-65
2020/12/11 08:09:16;;;;;;;128.35;56.37;;;;;;;1.11;76.04;99389.64;2174999;81;28892;-66
2020/12/11 08:12:21;;;;;;;142.50;64.15;;;;;;;1.17;76.05;99384.66;2174619;81;32095;-65
2020/12/11 08:15:34;;;;;;;133.93;58.17;;;;;;;1.20;76.07;99383.26;2175001;81;33950;-66
2020/12/11 08:18:37;;;;;;;139.97;60.48;;;;;;;1.29;76.04;99386.11;2174827;81;29170;-66
2020/12/11 08:21:39;;;;;;;135.65;60.33;;;;;;;1.41;76.08;99384.92;2174915;81;27633;-66
2020/12/11 08:24:43;;;;;;;135.60;63.45;;;;;;;1.54;76.15;99375.76;2174919;81;28871;-67
2020/12/11 08:27:45;;;;;;;139.65;60.55;;;;;;;1.65;76.01;99381.63;2173976;81;32571;-67
2020/12/11 08:30:54;;;;;;;145.17;60.73;;;;;;;1.78;75.88;99381.27;2174885;80;34036;-67
2020/12/11 08:34:15;;;;;;;131.27;60.78;;;;;;;1.80;75.55;99387.38;2181819;81;30510;-66
2020/12/11 08:37:19;;;;;;;121.77;53.28;;;;;;;1.79;75.39;99385.64;2181811;81;27594;-67
2020/12/11 08:40:23;;;;;;;122.90;54.30;;;;;;;1.75;75.41;99381.36;2181947;81;29193;-68
2020/12/11 08:43:38;;;;;;;103.22;45.60;;;;;;;1.73;75.39;99390.66;2182149;81;31652;-66
2020/12/11 08:46:50;;;;;;;132.40;58.68;;;;;;;1.70;75.48;99385.89;2188191;81;33095;-67
2020/12/11 08:49:50;;;;;;;145.45;59.03;;;;;;;1.69;75.54;99386.80;2183671;78;30598;-67
2020/12/11 08:52:52;;;;;;;144.25;61.83;;;;;;;1.66;75.46;99386.44;2181712;81;27648;-66
2020/12/11 08:55:54;;;;;;;136.88;60.43;;;;;;;1.72;75.67;99387.59;2182041;81;28830;-66
2020/12/11 08:58:57;;;;;;;126.50;54.27;;;;;;;1.77;75.57;99382.18;2181090;81;32093;-67
2020/12/11 09:02:03;;;;;;;134.27;59.83;;;;;;;1.78;75.49;99385.23;2181942;81;33996;-66
2020/12/11 09:05:05;;;;;;;139.50;62.43;;;;;;;1.76;75.47;99385.73;2181832;81;29165;-67
2020/12/11 09:08:08;;;;;;;134.37;61.33;;;;;;;1.78;75.49;99387.41;2181579;81;27682;-67
2020/12/11 09:11:11;;;;;;;136.70;62.03;;;;;;;1.81;75.63;99382.05;2181842;81;28821;-66
2020/12/11 09:14:14;;;;;;;132.37;60.15;;;;;;;1.91;75.66;99387.92;2181504;81;31126;-66
2020/12/11 09:17:16;;;;;;;143.10;64.62;;;;;;;1.97;75.48;99385.56;2181423;80;32877;-66
2020/12/11 09:20:19;;;;;;;141.57;63.13;;;;;;;2.01;75.55;99379.28;2181933;81;28134;-67
2020/12/11 09:23:21;;;;;;;145.62;63.28;;;;;;;2.10;75.60;99378.15;2181833;81;27736;-66
2020/12/11 09:26:27;;;;;;;129.85;52.75;;;;;;;2.16;75.38;99370.48;2181393;81;28766;-66
2020/12/11 09:29:36;;;;;;;134.25;59.38;;;;;;;2.23;75.14;99361.48;2154405;81;32447;-67
2020/12/11 09:35:51;;;;;;;139.50;61.73;;;;;;;2.27;75.06;99336.22;2248606;78;27719;-63
2020/12/11 09:38:53;;;;;;;131.03;63.83;;;;;;;2.24;74.72;99334.11;2228502;79;27651;-63
2020/12/11 09:45:20;;;;;;;152.90;66.10;;;;;;;2.19;74.94;99328.13;2228139;79;31016;-63
2020/12/11 09:54:50;;;;;;;135.73;59.23;;;;;;;2.24;74.94;99312.97;2248485;78;27771;-59
2020/12/11 09:57:52;;;;;;;136.05;62.65;;;;;;;2.19;74.96;99305.19;2226083;79;27645;-63
2020/12/11 10:00:55;;;;;;;115.52;57.70;;;;;;;2.21;75.05;99304.69;2179121;81;29294;-62
2020/12/11 10:03:57;;;;;;;138.62;64.60;;;;;;;2.31;75.06;99302.63;2178705;81;31154;-61
2020/12/11 10:06:59;;;;;;;115.97;57.62;;;;;;;2.35;74.95;99300.74;2179406;81;33185;-62
2020/12/11 10:10:04;;;;;;;120.57;56.70;;;;;;;2.38;74.76;99290.95;2208045;80;29534;-60
2020/12/11 10:13:07;;;;;;;116.70;58.80;;;;;;;2.37;74.59;99290.98;2190378;81;27620;-62
2020/12/11 10:16:10;;;;;;;118.72;56.85;;;;;;;2.37;74.86;99286.58;2218774;80;30219;-61
2020/12/11 10:19:12;;;;;;;122.28;56.75;;;;;;;2.38;74.75;99292.28;2224922;80;31634;-62
2020/12/11 10:22:15;;;;;;;120.65;58.25;;;;;;;2.41;74.79;99297.91;2225333;80;34025;-61
2020/12/11 10:25:19;;;;;;;123.40;57.53;;;;;;;2.43;74.96;99296.94;2225039;80;29801;-58
2020/12/11 10:28:22;;;;;;;114.80;52.60;;;;;;;2.51;74.99;99282.62;2217899;80;27641;-58
2020/12/11 10:31:30;;;;;;;118.20;56.23;;;;;;;2.52;74.82;99274.63;2119216;82;28828;-58
2020/12/11 10:34:35;;;;;;;93.47;43.98;;;;;;;2.54;74.80;99273.27;2150205;82;31070;-58
2020/12/11 10:37:39;;;;;;;115.88;54.15;;;;;;;2.58;74.81;99269.14;2150437;82;33129;-58
2020/12/11 10:40:42;;;;;;;119.42;53.52;;;;;;;2.58;74.81;99261.21;2180200;81;28877;-59
2020/12/11 10:43:45;;;;;;;108.22;53.35;;;;;;;2.60;74.82;99263.78;2217659;80;27652;-59
2020/12/11 10:46:49;;;;;;;111.90;51.63;;;;;;;2.63;74.87;99258.41;2217858;80;28839;-60
2020/12/11 10:49:52;;;;;;;107.45;52.78;;;;;;;2.69;75.01;99250.71;2217613;80;31587;-60
2020/12/11 10:52:56;;;;;;;114.37;52.23;;;;;;;2.77;75.04;99242.52;2212125;80;33652;-61
2020/12/11 10:55:59;;;;;;;116.55;53.00;;;;;;;2.82;74.98;99240.11;2195506;81;29081;-58
2020/12/11 10:59:02;;;;;;;107.87;52.67;;;;;;;2.89;74.91;99231.53;2187992;81;27713;-60
2020/12/11 11:02:05;;;;;;;110.80;51.70;;;;;;;2.93;74.59;99239.73;2153385;82;29583;-63
2020/12/11 11:05:08;;;;;;;99.58;51.83;;;;;;;2.95;74.63;99236.58;2172505;81;31992;-62
2020/12/11 11:08:10;;;;;;;105.60;51.80;;;;;;;3.00;74.61;99233.77;2153231;82;34139;-61
2020/12/11 11:11:22;;;;;;;111.28;51.18;;;;;;;3.06;74.62;99222.97;2197649;80;29820;-60
2020/12/11 11:14:51;;;;;;;90.97;47.75;;;;;;;3.11;74.54;99217.50;2183912;81;27788;-59
2020/12/11 11:20:58;;;;;;;116.88;55.10;;;;;;;3.19;74.17;99218.11;2180532;81;31988;-59
2020/12/11 11:27:05;;;;;;;88.42;44.05;;;;;;;3.26;74.05;99218.73;2195145;81;28852;-62
2020/12/11 11:30:00;;;;;;;105.35;50.95;;;;;;;3.27;73.98;99213.38;2193126;81;27765;-60
2020/12/11 11:33:03;;;;;;;100.10;51.45;;;;;;;3.32;74.02;99218.48;2195193;81;28779;-62
2020/12/11 11:36:06;;;;;;;105.35;51.20;;;;;;;3.37;73.83;99207.28;2195257;81;31142;-62
2020/12/11 11:39:09;;;;;;;105.05;53.80;;;;;;;3.41;73.87;99203.59;2195121;81;33125;-61
2020/12/11 11:42:11;;;;;;;110.68;52.17;;;;;;;3.43;73.65;99199.55;2195133;81;28846;-61
2020/12/11 11:45:26;;;;;;;99.60;50.55;;;;;;;3.43;73.65;99195.14;2181975;81;27725;-62
2020/12/11 11:48:28;;;;;;;116.90;55.25;;;;;;;3.46;73.56;99181.80;2153893;81;28782;-63
2020/12/11 11:51:44;;;;;;;113.15;53.87;;;;;;;3.52;73.39;99187.75;2155137;82;32193;-62
2020/12/11 11:54:40;;;;;;;99.80;48.52;;;;;;;3.53;73.52;99185.06;2185444;80;33125;-63
2020/12/11 11:57:43;;;;;;;113.83;56.88;;;;;;;3.55;73.26;99182.34;2199215;80;29431;-63
2020/12/11 12:00:46;;;;;;;119.30;56.58;;;;;;;3.50;73.27;99175.43;2199396;80;27690;-63
2020/12/11 12:03:48;;;;;;;101.55;51.10;;;;;;;3.50;73.46;99179.88;2199079;80;28832;-63
2020/12/11 12:06:50;;;;;;;106.67;50.92;;;;;;;3.51;73.37;99181.61;2199109;80;32174;-62
2020/12/11 12:09:53;;;;;;;118.77;53.00;;;;;;;3.46;73.45;99163.70;2199559;80;33337;-62
2020/12/11 12:12:56;;;;;;;92.37;45.88;;;;;;;3.52;73.55;99167.45;2199878;80;28864;-62
2020/12/11 12:15:59;;;;;;;92.12;44.00;;;;;;;3.56;73.53;99166.38;2199649;80;27668;-63
2020/12/11 12:19:03;;;;;;;90.15;45.30;;;;;;;3.59;73.58;99162.77;2199920;80;28823;-62
2020/12/11 12:22:47;;;;;;;76.37;42.33;;;;;;;3.65;73.55;99163.83;2199700;80;32092;-62
2020/12/11 12:31:48;;;;;;;93.03;44.23;;;;;;;3.84;73.45;99151.18;2146901;82;27713;-62
2020/12/11 12:34:56;;;;;;;;;;;;;;;3.88;73.57;99146.16;2148700;82;30135;-62
2020/12/11 12:37:57;;;;;;;72.03;37.40;;;;;;;3.94;73.48;99154.72;2146736;81;32031;-62
2020/12/11 12:44:22;;;;;;;49.13;26.55;;;;;;;4.08;73.38;99152.84;2148919;81;29806;-61
2020/12/11 12:47:25;;;;;;;54.55;26.23;;;;;;;4.17;73.28;99155.56;2146579;82;27856;-63
2020/12/11 12:50:27;;;;;;;50.67;27.67;;;;;;;4.21;73.10;99148.34;2146037;82;30319;-62
2020/12/11 12:53:33;;;;;;;61.45;35.17;;;;;;;4.25;73.07;99148.14;2128140;82;31913;-62
2020/12/11 13:00:17;;;;;;;52.93;27.03;;;;;;;4.44;73.01;99143.86;2248277;77;27559;-62
2020/12/11 13:06:27;;;;;;;49.77;27.07;;;;;;;4.48;73.05;99144.98;2248395;77;27785;-62
2020/12/11 13:09:29;;;;;;;62.25;32.05;;;;;;;4.50;72.92;99147.10;2228810;79;27644;-60
2020/12/11 13:12:33;;;;;;;57.67;29.90;;;;;;;4.54;73.03;99148.70;2228537;79;28714;-61
2020/12/11 13:15:36;;;;;;;54.45;28.90;;;;;;;4.61;72.94;99146.64;2228711;79;31215;-62
2020/12/11 13:18:39;;;;;;;46.92;27.00;;;;;;;4.63;73.01;99140.81;2228760;79;33976;-63
2020/12/11 13:28:17;;;;;;;39.78;23.83;;;;;;;4.71;73.01;99126.72;2227982;79;27657;-62
2020/12/11 13:31:20;;;;;;;39.58;23.20;;;;;;;4.75;73.06;99122.61;2221338;79;30329;-62
2020/12/11 13:34:23;;;;;;;41.53;22.98;;;;;;;4.78;73.10;99117.17;2218914;80;31224;-64
2020/12/11 13:37:30;;;;;;;31.20;17.75;;;;;;;4.81;72.99;99111.70;2179343;81;33105;-63
2020/12/11 13:40:33;;;;;;;36.85;21.62;;;;;;;4.81;72.76;99115.23;2199583;80;28538;-62
2020/12/11 13:43:36;;;;;;;33.50;19.92;;;;;;;4.80;72.97;99101.57;2218076;80;27685;-60
2020/12/11 13:46:43;;;;;;;40.10;22.52;;;;;;;4.76;72.90;99098.66;2218274;80;29796;-60
2020/12/11 13:49:46;;;;;;;39.40;23.20;;;;;;;4.75;73.04;99102.72;2218177;80;31160;-61
2020/12/11 13:52:48;;;;;;;38.85;24.82;;;;;;;4.73;73.11;99095.28;2218143;80;32916;-61
2020/12/11 13:55:51;;;;;;;39.83;21.17;;;;;;;4.73;73.09;99093.96;2217301;80;28868;-62
2020/12/11 14:02:09;;;;;;;36.83;20.40;;;;;;;4.72;73.14;99083.80;2248346;78;27690;-61
2020/12/11 14:05:11;;;;;;;30.57;18.95;;;;;;;4.65;73.13;99078.39;2209012;78;27703;-60
2020/12/11 14:08:14;;;;;;;37.30;19.80;;;;;;;4.62;73.18;99083.83;2179280;80;30192;-65
2020/12/11 14:11:25;;;;;;;38.63;19.92;;;;;;;4.60;73.18;99085.69;2179169;81;31141;-62
2020/12/11 14:14:28;;;;;;;35.38;19.65;;;;;;;4.58;73.18;99077.80;2178796;81;32254;-62
2020/12/11 14:21:04;;;;;;;30.25;18.77;;;;;;;4.60;73.10;99081.70;2179592;81;28234;-63
2020/12/11 14:24:00;;;;;;;31.73;17.50;;;;;;;4.54;72.98;99085.05;2178346;81;28765;-66
2020/12/11 14:27:02;;;;;;;31.40;16.95;;;;;;;4.52;73.01;99083.38;2179610;81;31142;-64
2020/12/11 14:30:05;;;;;;;27.58;15.98;;;;;;;4.47;72.95;99087.56;2179814;80;33610;-63
2020/12/11 14:33:08;;;;;;;29.60;17.00;;;;;;;4.40;72.90;99089.62;2179601;81;29919;-64
2020/12/11 14:36:10;;;;;;;28.60;18.07;;;;;;;4.35;72.94;99090.76;2179737;81;27679;-61
2020/12/11 14:39:13;;;;;;;30.68;17.87;;;;;;;4.31;73.02;99099.77;2179008;81;29710;-66
2020/12/11 14:42:15;;;;;;;31.90;18.42;;;;;;;4.27;72.98;99100.38;2178950;81;31142;-67
2020/12/11 14:45:18;;;;;;;36.60;20.32;;;;;;;4.21;72.99;99097.98;2179073;81;33572;-69
2020/12/11 14:48:20;;;;;;;32.15;17.85;;;;;;;4.15;73.01;99095.13;2197018;80;30132;-62
2020/12/11 14:51:41;;;;;;;30.55;17.95;;;;;;;4.07;72.95;99094.13;2218213;80;27661;-64
2020/12/11 14:54:44;;;;;;;31.97;17.92;;;;;;;4.00;73.00;99103.25;2218147;80;28820;-63
2020/12/11 14:57:46;;;;;;;31.97;16.48;;;;;;;3.92;73.05;99108.87;2211736;80;32090;-61
2020/12/11 15:00:51;;;;;;;29.42;18.98;;;;;;;3.87;73.05;99106.02;2180577;81;33134;-63
2020/12/11 15:03:53;;;;;;;35.43;19.30;;;;;;;3.84;73.13;99102.17;2149430;82;30748;-66